createdAt,value
2023-03-11T00:02:31.846Z,6.68
2023-03-11T00:05:34.593Z,6.07
2023-03-11T00:08:30.192Z,8.10
2023-03-11T00:13:44.289Z,7.75
2023-03-11T00:16:50.286Z,6.60
2023-03-11T00:19:17.237Z,3.67
2023-03-11T00:25:19.354Z,5.90
2023-03-11T00:27:46.255Z,4.07
2023-03-11T00:30:32.435Z,6.15
2023-03-11T00:53:00.251Z,5.60
2023-03-11T01:04:49.997Z,5.30
2023-03-11T01:21:47.074Z,4.05
2023-03-11T01:27:16.621Z,5.15
2023-03-11T01:42:10.338Z,4.68
2023-03-11T01:44:43.437Z,4.57
2023-03-11T02:05:35.224Z,4.07
2023-03-11T02:18:27.570Z,5.47
2023-03-11T02:28:07.137Z,5.97
2023-03-11T03:27:43.209Z,5.40
2023-03-11T03:59:50.763Z,3.85
2023-03-11T04:05:32.929Z,5.78
2023-03-11T04:12:40.180Z,5.03
2023-03-11T04:58:37.875Z,3.30
2023-03-11T05:08:49.048Z,8.90
2023-03-11T05:11:19.209Z,4.80
2023-03-11T05:20:57.574Z,3.85
2023-03-11T05:30:42.650Z,4.63
2023-03-11T05:33:09.623Z,5.25
2023-03-11T05:36:05.599Z,4.55
2023-03-11T05:38:32.469Z,4.65
2023-03-11T05:41:31.385Z,4.65
2023-03-11T05:43:58.264Z,5.97
2023-03-11T05:46:25.449Z,5.05
2023-03-11T05:48:52.405Z,5.53
2023-03-11T05:51:19.238Z,4.60
2023-03-11T05:54:37.006Z,6.00
2023-03-11T05:57:04.042Z,4.03
2023-03-11T05:59:49.883Z,4.63
2023-03-11T06:02:16.699Z,4.05
2023-03-11T06:04:43.868Z,3.72
2023-03-11T06:10:26.722Z,3.75
2023-03-11T06:12:53.784Z,3.67
2023-03-11T06:15:20.762Z,5.53
2023-03-11T06:17:47.610Z,5.13
2023-03-11T06:20:14.331Z,3.42
2023-03-11T06:22:41.098Z,3.80
2023-03-11T06:25:08.324Z,7.82
2023-03-11T06:32:29.763Z,4.80
2023-03-11T06:34:56.855Z,3.55
2023-03-11T06:41:17.716Z,3.65
2023-03-11T06:43:44.534Z,6.07
2023-03-11T06:46:17.718Z,5.57
2023-03-11T06:48:45.824Z,5.07
2023-03-11T06:51:33.344Z,5.03
2023-03-11T06:54:00.136Z,4.13
2023-03-11T06:56:32.356Z,4.35
2023-03-11T07:01:26.278Z,6.63
2023-03-11T07:04:57.004Z,4.63
2023-03-11T07:07:23.868Z,7.35
2023-03-11T07:09:50.821Z,5.13
2023-03-11T07:12:17.833Z,6.47
2023-03-11T07:14:44.694Z,5.65
2023-03-11T07:17:11.522Z,5.72
2023-03-11T07:19:38.253Z,6.22
2023-03-11T07:24:55.783Z,6.90
2023-03-11T07:27:23.134Z,7.72
2023-03-11T07:31:07.691Z,5.70
2023-03-11T07:33:34.425Z,5.97
2023-03-11T07:36:09.192Z,6.95
2023-03-11T07:38:36.782Z,7.13
2023-03-11T07:41:03.690Z,5.78
2023-03-11T07:43:31.104Z,9.68
2023-03-11T07:46:06.907Z,7.53
2023-03-11T07:51:59.087Z,10.02
2023-03-11T07:54:29.030Z,7.40
2023-03-11T07:56:58.366Z,7.43
2023-03-11T08:00:26.227Z,10.40
2023-03-11T08:06:01.859Z,4.15
2023-03-11T08:13:59.884Z,11.35
2023-03-11T08:16:48.738Z,7.15
2023-03-11T08:26:37.972Z,13.63
2023-03-11T08:29:05.102Z,9.02
2023-03-11T08:31:33.825Z,9.68
2023-03-11T08:37:13.577Z,8.07
2023-03-11T08:39:40.305Z,12.73
2023-03-11T08:42:07.255Z,12.07
2023-03-11T08:44:34.028Z,10.68
2023-03-11T08:47:01.870Z,9.68
2023-03-11T08:50:29.039Z,10.18
2023-03-11T08:52:56.491Z,9.25
2023-03-11T08:55:30.482Z,9.93
2023-03-11T08:58:24.676Z,8.95
2023-03-11T09:01:35.576Z,10.10
2023-03-11T09:07:23.767Z,12.02
2023-03-11T09:09:50.698Z,9.02
2023-03-11T09:12:17.672Z,10.95
2023-03-11T09:21:14.668Z,13.07
2023-03-11T09:23:44.183Z,10.10
2023-03-11T09:26:39.400Z,9.02
2023-03-11T09:29:06.162Z,11.55
2023-03-11T09:36:42.022Z,8.43
2023-03-11T09:39:09.533Z,9.27
2023-03-11T09:45:56.233Z,9.05
2023-03-11T09:48:27.101Z,8.65
2023-03-11T09:51:24.872Z,9.05
2023-03-11T09:53:59.987Z,9.75
2023-03-11T09:56:27.457Z,11.45
2023-03-11T09:59:00.954Z,9.48
2023-03-11T10:01:44.811Z,8.43
2023-03-11T10:04:28.949Z,7.05
2023-03-11T10:07:42.679Z,9.85
2023-03-11T10:17:18.507Z,8.60
2023-03-11T10:20:30.111Z,9.32
2023-03-11T10:23:40.654Z,7.55
2023-03-11T10:26:15.121Z,7.85
2023-03-11T10:28:44.930Z,8.10
2023-03-11T10:35:00.660Z,7.55
2023-03-11T10:37:58.423Z,7.95
2023-03-11T10:41:09.482Z,8.85
2023-03-11T10:43:44.987Z,9.27
2023-03-11T10:46:50.743Z,6.30
2023-03-11T10:50:20.649Z,8.70
2023-03-11T10:59:34.544Z,7.57
2023-03-11T11:02:04.353Z,10.70
2023-03-11T11:04:41.409Z,11.00
2023-03-11T11:10:57.613Z,7.13
2023-03-11T11:13:27.983Z,12.32
2023-03-11T11:16:03.949Z,7.55
2023-03-11T11:18:44.134Z,6.38
2023-03-11T11:24:25.497Z,6.78
2023-03-11T11:31:50.910Z,8.02
2023-03-11T11:34:33.081Z,6.10
2023-03-11T11:40:14.443Z,8.50
2023-03-11T11:43:02.075Z,8.02
2023-03-11T11:45:39.278Z,8.95
2023-03-11T11:52:23.802Z,7.25
2023-03-11T12:01:57.383Z,7.72
2023-03-11T12:04:55.022Z,11.55
2023-03-11T12:11:28.263Z,7.78
2023-03-11T12:14:08.954Z,8.57
2023-03-11T12:16:44.396Z,7.20
2023-03-11T12:19:33.929Z,7.78
2023-03-11T12:22:03.086Z,8.95
2023-03-11T12:24:50.913Z,9.00
2023-03-11T12:27:41.410Z,9.27
2023-03-11T12:30:39.340Z,9.00
2023-03-11T12:33:24.140Z,8.15
2023-03-11T12:36:30.202Z,7.88
2023-03-11T12:40:06.122Z,7.28
2023-03-11T12:43:30.182Z,8.55
2023-03-11T12:46:16.764Z,9.05
2023-03-11T12:48:51.141Z,7.82
2023-03-11T12:51:27.038Z,6.10
2023-03-11T12:54:34.726Z,8.68
2023-03-11T13:06:46.557Z,6.88
2023-03-11T13:15:53.826Z,9.52
2023-03-11T13:19:18.631Z,7.35
2023-03-11T13:24:32.023Z,7.78
2023-03-11T13:26:58.772Z,8.95
2023-03-11T13:29:52.257Z,10.90
2023-03-11T13:32:40.212Z,6.97
2023-03-11T13:35:24.117Z,8.48
2023-03-11T13:37:51.119Z,8.05
2023-03-11T13:40:43.257Z,10.23
2023-03-11T13:43:42.637Z,8.40
2023-03-11T13:46:29.074Z,8.15
2023-03-11T13:49:05.307Z,8.10
2023-03-11T13:51:46.526Z,8.00
2023-03-11T13:54:19.994Z,10.18
2023-03-11T14:02:07.306Z,8.23
2023-03-11T14:04:37.381Z,7.82
2023-03-11T14:07:15.012Z,7.45
2023-03-11T14:09:41.834Z,6.93
2023-03-11T14:12:31.349Z,4.97
2023-03-11T14:15:05.976Z,5.28
2023-03-11T14:17:54.417Z,8.07
2023-03-11T14:20:27.196Z,5.40
2023-03-11T14:22:56.080Z,5.70
2023-03-11T14:25:26.532Z,8.15
2023-03-11T14:27:59.784Z,6.22
2023-03-11T14:30:29.835Z,6.80
2023-03-11T14:33:37.688Z,6.70
2023-03-11T14:36:11.620Z,3.72
2023-03-11T14:38:43.784Z,7.35
2023-03-11T14:41:13.984Z,9.15
2023-03-11T14:47:35.593Z,6.50
2023-03-11T14:53:30.192Z,6.40
2023-03-11T14:56:06.924Z,4.88
2023-03-11T14:58:44.509Z,4.35
2023-03-11T15:01:30.083Z,5.65
2023-03-11T15:04:08.885Z,5.60
2023-03-11T15:06:57.534Z,5.07
2023-03-11T15:09:25.134Z,6.38
2023-03-11T15:12:34.707Z,6.88
2023-03-11T15:24:41.250Z,7.13
2023-03-11T15:27:29.198Z,8.15
2023-03-11T15:29:56.406Z,7.80
2023-03-11T15:33:08.756Z,6.07
2023-03-11T15:35:46.736Z,6.47
2023-03-11T15:38:13.572Z,8.55
2023-03-11T15:43:30.037Z,7.45
2023-03-11T15:45:59.127Z,8.45
2023-03-11T15:48:43.251Z,8.70
2023-03-11T15:51:20.552Z,8.75
2023-03-11T15:53:48.496Z,7.93
2023-03-11T15:56:23.893Z,6.57
2023-03-11T15:58:50.877Z,8.68
2023-03-11T16:01:22.905Z,10.45
2023-03-11T16:04:02.709Z,8.02
2023-03-11T16:06:29.702Z,7.28
2023-03-11T16:08:56.432Z,8.45
2023-03-11T16:11:23.231Z,12.95
2023-03-11T16:13:49.978Z,8.38
2023-03-11T16:16:17.533Z,12.38
2023-03-11T16:18:44.415Z,9.02
2023-03-11T16:21:21.145Z,7.93
2023-03-11T16:26:40.143Z,11.68
2023-03-11T16:29:18.582Z,16.52
2023-03-11T16:35:10.228Z,17.67
2023-03-11T16:37:36.987Z,18.50
2023-03-11T16:40:07.151Z,18.70
2023-03-11T16:42:40.245Z,17.30
2023-03-11T16:45:07.507Z,17.20
2023-03-11T16:47:34.305Z,16.83
2023-03-11T16:50:13.487Z,15.20
2023-03-11T16:56:05.591Z,12.25
2023-03-11T16:58:32.286Z,13.93
2023-03-11T17:01:11.231Z,12.50
2023-03-11T17:03:42.852Z,13.00
2023-03-11T17:06:36.876Z,8.98
2023-03-11T17:09:03.930Z,12.23
2023-03-11T17:11:30.937Z,10.00
2023-03-11T17:14:10.110Z,11.90
2023-03-11T17:16:42.669Z,11.18
2023-03-11T17:21:46.976Z,10.88
2023-03-11T17:24:13.748Z,10.65
2023-03-11T17:26:40.475Z,10.35
2023-03-11T17:29:16.585Z,9.57
2023-03-11T17:31:46.125Z,8.23
2023-03-11T17:34:19.093Z,10.57
2023-03-11T17:36:45.978Z,8.32
2023-03-11T17:39:29.506Z,11.23
2023-03-11T17:51:54.681Z,9.30
2023-03-11T18:06:45.224Z,8.05
2023-03-11T18:09:16.741Z,6.75
2023-03-11T18:11:45.080Z,8.45
2023-03-11T18:17:55.027Z,10.45
2023-03-11T18:31:00.337Z,7.20
2023-03-11T18:36:43.892Z,9.07
2023-03-11T18:55:38.148Z,7.80
2023-03-11T19:01:20.812Z,5.32
2023-03-11T19:03:53.309Z,7.90
2023-03-11T19:12:38.474Z,7.32
2023-03-11T19:27:20.437Z,5.25
2023-03-11T19:33:34.260Z,4.97
2023-03-11T19:39:21.102Z,6.57
2023-03-11T19:41:48.161Z,5.25
2023-03-11T19:48:03.466Z,7.38
2023-03-11T19:50:30.524Z,6.38
2023-03-11T19:56:38.844Z,4.38
2023-03-11T20:02:50.115Z,5.60
2023-03-11T20:15:52.630Z,6.90
2023-03-11T20:18:25.757Z,5.88
2023-03-11T20:20:52.496Z,5.28
2023-03-11T20:23:35.321Z,7.80
2023-03-11T20:26:12.760Z,9.98
2023-03-11T20:28:42.760Z,10.13
2023-03-11T20:31:22.471Z,10.63
2023-03-11T20:33:51.005Z,11.65
2023-03-11T20:41:13.944Z,13.00
2023-03-11T20:46:54.870Z,13.07
2023-03-11T20:52:23.584Z,9.93
2023-03-11T20:55:15.966Z,14.13
2023-03-11T20:58:10.848Z,9.23
2023-03-11T21:03:44.992Z,11.07
2023-03-11T21:07:07.907Z,9.60
2023-03-11T21:09:54.588Z,11.00
2023-03-11T21:12:22.122Z,12.00
2023-03-11T21:18:52.682Z,10.27
2023-03-11T21:21:19.799Z,10.07
2023-03-11T21:23:47.647Z,11.75
2023-03-11T21:26:16.300Z,12.65
2023-03-11T21:28:46.523Z,10.55
2023-03-11T21:31:19.476Z,11.40
2023-03-11T21:34:05.231Z,9.00
2023-03-11T21:36:49.500Z,10.25
2023-03-11T21:39:17.308Z,9.65
2023-03-11T21:41:44.171Z,8.77
2023-03-11T21:44:11.058Z,9.40
2023-03-11T21:46:38.073Z,9.30
2023-03-11T21:49:04.884Z,10.63
2023-03-11T21:51:50.206Z,9.38
2023-03-11T21:54:17.230Z,9.00
2023-03-11T21:56:47.233Z,9.18
2023-03-11T21:59:14.042Z,9.15
2023-03-11T22:01:42.368Z,10.55
2023-03-11T22:04:09.767Z,8.75
2023-03-11T22:06:36.565Z,7.78
2023-03-11T22:09:04.012Z,7.78
2023-03-11T22:14:28.226Z,8.48
2023-03-11T22:16:55.006Z,7.45
2023-03-11T22:19:22.163Z,7.03
2023-03-11T22:21:49.101Z,7.43
2023-03-11T22:24:21.796Z,7.60
2023-03-11T22:26:49.708Z,9.75
2023-03-11T22:29:16.546Z,8.63
2023-03-11T22:32:02.312Z,8.30
2023-03-11T22:34:47.680Z,8.50
2023-03-11T22:37:14.632Z,7.05
2023-03-11T22:39:41.586Z,10.10
2023-03-11T22:42:08.348Z,8.15
2023-03-11T22:44:35.153Z,8.20
2023-03-11T22:54:29.590Z,6.72
2023-03-11T22:56:56.482Z,5.53
2023-03-11T22:59:23.330Z,7.35
2023-03-11T23:04:22.895Z,8.05
2023-03-11T23:07:22.348Z,9.52
2023-03-11T23:09:49.090Z,7.35
2023-03-11T23:12:16.096Z,5.32
2023-03-11T23:18:20.694Z,6.95
2023-03-11T23:20:47.401Z,6.72
2023-03-11T23:23:20.624Z,6.50
2023-03-11T23:25:48.993Z,6.18
2023-03-11T23:28:15.939Z,5.53
2023-03-11T23:30:42.747Z,6.68
2023-03-11T23:33:09.526Z,7.82
2023-03-11T23:35:58.829Z,8.07
2023-03-11T23:38:25.525Z,7.88
2023-03-11T23:40:56.030Z,6.05
2023-03-11T23:43:23.858Z,7.68
2023-03-11T23:45:53.554Z,5.95
2023-03-11T23:54:49.977Z,6.57
2023-03-11T23:57:16.913Z,7.35
2023-03-11T23:59:44.217Z,8.10
